createdAt,value
2023-05-14T00:00:04.711Z,35.60
2023-05-14T00:02:58.992Z,35.40
2023-05-14T00:05:32.192Z,34.30
2023-05-14T00:08:04.923Z,36.20
2023-05-14T00:10:47.383Z,34.40
2023-05-14T00:13:22.576Z,34.10
2023-05-14T00:15:58.213Z,34.40
2023-05-14T00:18:36.750Z,34.10
2023-05-14T00:21:09.515Z,33.90
2023-05-14T00:24:02.510Z,33.50
2023-05-14T00:26:47.690Z,33.20
2023-05-14T00:29:20.424Z,34.10
2023-05-14T00:31:53.273Z,31.50
2023-05-14T00:34:29.242Z,32.90
2023-05-14T00:37:22.149Z,32.40
2023-05-14T00:40:06.929Z,34.80
2023-05-14T00:42:43.999Z,33.30
2023-05-14T00:45:26.710Z,32.20
2023-05-14T00:48:02.434Z,32.40
2023-05-14T00:50:37.656Z,32.20
2023-05-14T00:53:15.427Z,34.10
2023-05-14T00:55:58.650Z,33.30
2023-05-14T00:58:33.782Z,33.20
2023-05-14T01:01:19.505Z,32.60
2023-05-14T01:03:55.063Z,34.30
2023-05-14T01:07:00.375Z,35.40
2023-05-14T01:09:50.168Z,34.50
2023-05-14T01:12:54.748Z,35.20
2023-05-14T01:15:40.644Z,36.60
2023-05-14T01:18:21.493Z,38.60
2023-05-14T01:20:57.716Z,37.30
2023-05-14T01:23:33.104Z,36.20
2023-05-14T01:26:18.647Z,35.60
2023-05-14T01:29:09.964Z,36.20
2023-05-14T01:31:46.970Z,36.60
2023-05-14T01:34:26.804Z,37.10
2023-05-14T01:37:11.620Z,37.40
2023-05-14T01:39:58.921Z,38.60
2023-05-14T01:42:39.568Z,35.40
2023-05-14T01:45:33.280Z,37.50
2023-05-14T01:48:26.538Z,37.50
2023-05-14T01:50:59.245Z,36.90
2023-05-14T01:53:41.899Z,36.00
2023-05-14T01:56:17.952Z,36.80
2023-05-14T01:59:10.505Z,37.40
2023-05-14T02:02:05.550Z,34.80
2023-05-14T02:04:58.432Z,33.70
2023-05-14T02:07:52.234Z,35.30
2023-05-14T02:10:44.993Z,34.80
2023-05-14T02:13:38.828Z,34.60
2023-05-14T02:16:23.577Z,35.50
2023-05-14T02:19:15.479Z,32.70
2023-05-14T02:22:07.659Z,32.90
2023-05-14T02:24:52.026Z,33.90
2023-05-14T02:27:45.161Z,33.40
2023-05-14T02:30:40.322Z,33.30
2023-05-14T02:33:32.982Z,34.50
2023-05-14T02:36:26.306Z,34.00
2023-05-14T02:39:10.130Z,35.00
2023-05-14T02:42:02.816Z,34.40
2023-05-14T02:44:55.620Z,32.80
2023-05-14T02:47:50.390Z,33.90
2023-05-14T02:50:43.650Z,32.60
2023-05-14T02:53:37.618Z,32.70
2023-05-14T02:56:30.036Z,31.70
2023-05-14T02:59:23.762Z,31.80
2023-05-14T03:02:15.498Z,32.60
2023-05-14T03:05:09.665Z,31.20
2023-05-14T03:08:02.349Z,32.10
2023-05-14T03:10:55.145Z,30.30
2023-05-14T03:13:38.299Z,31.60
2023-05-14T03:16:33.291Z,32.20
2023-05-14T03:19:18.666Z,31.30
2023-05-14T03:22:13.796Z,30.60
2023-05-14T03:25:07.108Z,29.80
2023-05-14T03:28:00.479Z,31.90
2023-05-14T03:30:53.412Z,31.70
2023-05-14T03:33:46.415Z,32.30
2023-05-14T03:36:39.882Z,30.60
2023-05-14T03:39:32.772Z,30.70
2023-05-14T03:42:25.701Z,29.20
2023-05-14T03:45:19.824Z,29.70
2023-05-14T03:48:12.566Z,30.30
2023-05-14T03:51:05.600Z,29.10
2023-05-14T03:53:58.596Z,29.60
2023-05-14T03:56:51.821Z,30.20
2023-05-14T03:59:44.675Z,28.70
2023-05-14T04:02:35.820Z,30.00
2023-05-14T04:05:27.796Z,28.10
2023-05-14T04:08:20.703Z,28.30
2023-05-14T04:11:13.498Z,29.60
2023-05-14T04:14:06.670Z,30.40
2023-05-14T04:17:00.368Z,29.50
2023-05-14T04:19:53.172Z,29.00
2023-05-14T04:22:47.793Z,29.10
2023-05-14T04:25:40.755Z,29.10
2023-05-14T04:28:35.089Z,28.50
2023-05-14T04:31:28.079Z,28.10
2023-05-14T04:34:22.448Z,28.20
2023-05-14T04:37:05.516Z,26.80
2023-05-14T04:40:00.440Z,26.70
2023-05-14T04:42:53.184Z,26.20
2023-05-14T04:45:45.997Z,26.40
2023-05-14T04:48:27.532Z,24.70
2023-05-14T04:51:19.232Z,23.70
2023-05-14T04:54:04.748Z,23.90
2023-05-14T04:56:47.815Z,19.10
2023-05-14T04:59:26.944Z,18.80
2023-05-14T05:02:20.215Z,19.20
2023-05-14T05:05:14.887Z,18.80
2023-05-14T05:07:47.901Z,17.10
2023-05-14T05:10:30.609Z,16.20
2023-05-14T05:13:23.369Z,14.90
2023-05-14T05:16:16.476Z,14.40
2023-05-14T05:19:09.357Z,14.60
2023-05-14T05:22:02.320Z,13.60
2023-05-14T05:24:55.173Z,14.80
2023-05-14T05:27:31.220Z,15.00
2023-05-14T05:30:09.268Z,15.30
2023-05-14T05:32:47.245Z,14.40
2023-05-14T05:35:23.095Z,14.10
2023-05-14T05:38:18.365Z,12.40
2023-05-14T05:41:11.172Z,11.60
2023-05-14T05:44:06.483Z,11.60
2023-05-14T05:46:59.621Z,13.20
2023-05-14T05:49:55.232Z,12.40
2023-05-14T05:52:47.839Z,12.10
2023-05-14T05:55:37.028Z,9.30
2023-05-14T05:58:29.782Z,7.40
2023-05-14T06:01:24.916Z,8.30
2023-05-14T06:04:17.934Z,8.60
2023-05-14T06:07:10.635Z,8.20
2023-05-14T06:10:03.690Z,8.70
2023-05-14T06:12:36.121Z,9.10
2023-05-14T06:15:14.835Z,9.00
2023-05-14T06:17:58.950Z,9.60
2023-05-14T06:20:42.625Z,8.90
2023-05-14T06:23:24.727Z,9.30
2023-05-14T06:26:17.250Z,10.40
2023-05-14T06:29:10.078Z,9.80
2023-05-14T06:31:51.778Z,10.20
2023-05-14T06:34:44.891Z,9.30
2023-05-14T06:37:37.681Z,6.90
2023-05-14T06:40:17.534Z,7.00
2023-05-14T06:43:11.098Z,4.90
2023-05-14T06:46:03.657Z,4.40
2023-05-14T06:48:37.925Z,4.20
2023-05-14T06:51:20.755Z,4.60
2023-05-14T06:54:15.072Z,4.70
2023-05-14T06:57:08.513Z,4.60
2023-05-14T06:59:52.690Z,4.80
2023-05-14T07:02:38.562Z,4.90
2023-05-14T07:05:20.783Z,5.90
2023-05-14T07:08:13.667Z,5.60
2023-05-14T07:11:00.268Z,5.50
2023-05-14T07:13:32.937Z,5.40
2023-05-14T07:16:11.286Z,5.50
2023-05-14T07:19:04.347Z,5.80
2023-05-14T07:21:55.687Z,5.50
2023-05-14T07:24:49.363Z,5.80
2023-05-14T07:27:36.328Z,5.10
2023-05-14T07:30:29.130Z,5.60
2023-05-14T07:33:22.687Z,6.40
2023-05-14T07:35:57.699Z,6.60
2023-05-14T07:38:50.536Z,7.80
2023-05-14T07:41:43.704Z,6.50
2023-05-14T07:44:37.720Z,7.10
2023-05-14T07:47:31.076Z,5.80
2023-05-14T07:50:23.055Z,6.20
2023-05-14T07:53:15.703Z,6.30
2023-05-14T07:56:10.678Z,5.50
2023-05-14T07:58:47.222Z,5.60
2023-05-14T08:01:20.149Z,5.60
2023-05-14T08:04:02.922Z,4.40
2023-05-14T08:06:55.556Z,4.00
2023-05-14T08:09:41.139Z,4.70
2023-05-14T08:12:33.884Z,4.00
2023-05-14T08:15:27.859Z,4.00
2023-05-14T08:18:20.631Z,4.40
2023-05-14T08:21:13.347Z,4.60
2023-05-14T08:24:06.625Z,4.30
2023-05-14T08:27:02.501Z,4.30
2023-05-14T08:29:42.385Z,4.10
2023-05-14T08:32:28.936Z,4.60
2023-05-14T08:35:15.154Z,4.00
2023-05-14T08:37:59.059Z,4.20
2023-05-14T08:40:48.180Z,3.60
2023-05-14T08:43:32.244Z,3.60
2023-05-14T08:46:18.235Z,3.80
2023-05-14T08:49:32.189Z,3.90
2023-05-14T08:52:26.929Z,3.50
2023-05-14T08:55:20.482Z,3.90
2023-05-14T08:58:13.497Z,3.30
2023-05-14T09:00:48.948Z,3.50
2023-05-14T09:03:22.087Z,4.00
2023-05-14T09:06:09.473Z,3.40
2023-05-14T09:08:42.406Z,3.40
2023-05-14T09:11:35.301Z,3.70
2023-05-14T09:14:11.675Z,3.40
2023-05-14T09:17:04.633Z,3.60
2023-05-14T09:19:39.383Z,3.50
2023-05-14T09:22:33.379Z,3.50
2023-05-14T09:25:32.129Z,3.20
2023-05-14T09:28:28.183Z,2.70
2023-05-14T09:31:21.271Z,3.10
2023-05-14T09:34:26.832Z,3.30
2023-05-14T09:37:20.845Z,3.10
2023-05-14T09:40:14.669Z,2.90
2023-05-14T09:43:10.274Z,3.10
2023-05-14T09:46:02.857Z,3.00
2023-05-14T09:48:56.929Z,3.20
2023-05-14T09:51:51.570Z,3.30
2023-05-14T09:54:44.383Z,2.70
2023-05-14T09:57:32.653Z,3.00
2023-05-14T10:00:27.019Z,2.70
2023-05-14T10:03:15.247Z,2.70
2023-05-14T10:05:51.169Z,2.80
2023-05-14T10:08:30.445Z,2.70
2023-05-14T10:11:07.967Z,3.20
2023-05-14T10:13:56.507Z,2.40
2023-05-14T10:16:51.596Z,2.20
2023-05-14T10:19:27.520Z,2.70
2023-05-14T10:22:06.556Z,2.50
2023-05-14T10:24:40.142Z,2.70
2023-05-14T10:27:33.530Z,2.80
2023-05-14T10:30:14.028Z,2.20
2023-05-14T10:32:47.171Z,2.50
2023-05-14T10:35:59.391Z,2.50
2023-05-14T10:38:58.743Z,2.60
2023-05-14T10:41:51.590Z,2.10
2023-05-14T10:44:50.726Z,2.30
2023-05-14T10:47:23.930Z,2.30
2023-05-14T10:49:57.804Z,2.40
2023-05-14T10:52:35.321Z,2.00
2023-05-14T10:55:28.597Z,2.00
2023-05-14T10:58:22.346Z,2.00
2023-05-14T11:01:15.725Z,2.60
2023-05-14T11:04:04.599Z,2.20
2023-05-14T11:06:57.335Z,2.10
2023-05-14T11:09:33.239Z,2.10
2023-05-14T11:12:27.788Z,2.10
2023-05-14T11:15:16.239Z,2.20
2023-05-14T11:18:10.436Z,2.20
2023-05-14T11:20:43.587Z,1.90
2023-05-14T11:23:26.635Z,2.10
2023-05-14T11:26:21.740Z,1.80
2023-05-14T11:28:54.796Z,1.90
2023-05-14T11:31:47.676Z,1.90
2023-05-14T11:34:46.032Z,2.00
2023-05-14T11:37:39.832Z,2.00
2023-05-14T11:40:32.763Z,1.90
2023-05-14T11:43:29.199Z,1.80
2023-05-14T11:46:22.552Z,1.60
2023-05-14T11:49:15.424Z,1.70
2023-05-14T11:52:03.133Z,1.70
2023-05-14T11:54:56.654Z,1.40
2023-05-14T11:57:49.415Z,1.70
2023-05-14T12:00:42.533Z,1.80
2023-05-14T12:03:36.172Z,1.80
2023-05-14T12:06:33.814Z,1.60
2023-05-14T12:09:26.678Z,1.30
2023-05-14T12:12:21.866Z,2.00
2023-05-14T12:15:18.366Z,1.60
2023-05-14T12:18:23.509Z,1.50
2023-05-14T12:21:19.129Z,1.50
2023-05-14T12:24:01.138Z,2.50
2023-05-14T12:26:55.571Z,1.40
2023-05-14T12:29:41.421Z,1.20
2023-05-14T12:32:18.013Z,1.60
2023-05-14T12:34:52.922Z,1.40
2023-05-14T12:37:45.793Z,1.30
2023-05-14T12:40:38.346Z,1.80
2023-05-14T12:43:32.267Z,1.50
2023-05-14T12:46:25.572Z,1.50
2023-05-14T12:49:08.242Z,1.80
2023-05-14T12:52:17.362Z,1.90
2023-05-14T12:55:14.175Z,1.90
2023-05-14T12:57:47.251Z,1.80
2023-05-14T13:00:24.947Z,1.70
2023-05-14T13:03:07.803Z,1.90
2023-05-14T13:06:00.646Z,2.20
2023-05-14T13:08:53.568Z,2.10
2023-05-14T13:11:27.175Z,2.50
2023-05-14T13:14:13.919Z,2.40
2023-05-14T13:16:47.392Z,2.40
2023-05-14T13:19:30.837Z,2.00
2023-05-14T13:22:03.618Z,2.20
2023-05-14T13:24:42.182Z,2.60
2023-05-14T13:27:36.097Z,2.80
2023-05-14T13:30:28.787Z,2.10
2023-05-14T13:33:12.486Z,2.40
2023-05-14T13:35:50.294Z,2.10
2023-05-14T13:38:45.895Z,2.30
2023-05-14T13:41:30.143Z,2.40
2023-05-14T13:44:05.114Z,3.00
2023-05-14T13:46:45.107Z,2.80
2023-05-14T13:49:37.988Z,2.60
2023-05-14T13:52:30.817Z,2.60
2023-05-14T13:55:13.525Z,2.60
2023-05-14T13:57:49.342Z,3.00
2023-05-14T14:00:42.792Z,2.90
2023-05-14T14:03:35.746Z,2.70
2023-05-14T14:06:21.981Z,2.70
2023-05-14T14:09:14.811Z,2.40
2023-05-14T14:12:09.125Z,2.40
2023-05-14T14:14:53.289Z,2.20
2023-05-14T14:17:46.363Z,2.40
2023-05-14T14:20:39.457Z,2.60
2023-05-14T14:23:22.030Z,2.40
2023-05-14T14:25:54.776Z,2.10
2023-05-14T14:28:41.694Z,2.30
2023-05-14T14:31:34.321Z,2.00
2023-05-14T14:34:28.598Z,2.00
2023-05-14T14:37:23.087Z,2.30
2023-05-14T14:40:16.963Z,2.00
2023-05-14T14:43:09.802Z,1.70
2023-05-14T14:46:02.912Z,1.80
2023-05-14T14:48:49.974Z,2.10
2023-05-14T14:51:43.734Z,1.90
2023-05-14T14:54:19.603Z,2.00
2023-05-14T14:57:13.611Z,2.20
2023-05-14T15:00:06.899Z,2.20
2023-05-14T15:03:01.751Z,2.20
2023-05-14T15:05:54.883Z,2.50
2023-05-14T15:08:47.736Z,2.10
2023-05-14T15:11:30.150Z,2.10
2023-05-14T15:14:23.158Z,2.30
2023-05-14T15:16:57.072Z,2.60
2023-05-14T15:19:33.259Z,2.10
2023-05-14T15:22:28.625Z,2.10
2023-05-14T15:25:11.726Z,1.90
2023-05-14T15:27:58.503Z,2.50
2023-05-14T15:30:41.265Z,2.30
2023-05-14T15:33:17.849Z,2.10
2023-05-14T15:36:01.737Z,2.70
2023-05-14T15:38:38.681Z,2.20
2023-05-14T15:41:25.739Z,2.50
2023-05-14T15:44:02.267Z,2.10
2023-05-14T15:46:45.187Z,2.40
2023-05-14T15:49:31.865Z,2.30
2023-05-14T15:52:26.009Z,2.30
2023-05-14T15:55:01.457Z,2.30
2023-05-14T15:57:54.519Z,2.00
2023-05-14T16:00:47.668Z,2.00
2023-05-14T16:03:32.814Z,2.00
2023-05-14T16:06:26.708Z,2.20
2023-05-14T16:09:19.563Z,2.30
2023-05-14T16:12:12.686Z,2.20
2023-05-14T16:15:05.660Z,2.60
2023-05-14T16:17:58.552Z,2.20
2023-05-14T16:20:53.050Z,2.20
2023-05-14T16:23:46.414Z,2.00
2023-05-14T16:26:39.736Z,2.40
2023-05-14T16:29:32.694Z,2.60
2023-05-14T16:32:26.138Z,2.50
2023-05-14T16:35:02.896Z,2.70
2023-05-14T16:37:55.770Z,2.30
2023-05-14T16:40:48.620Z,2.40
2023-05-14T16:43:45.870Z,2.60
2023-05-14T16:46:31.253Z,2.60
2023-05-14T16:49:15.429Z,2.30
2023-05-14T16:52:09.541Z,2.40
2023-05-14T16:55:02.787Z,2.20
2023-05-14T16:57:55.724Z,2.30
2023-05-14T17:00:48.743Z,2.50
2023-05-14T17:03:41.906Z,2.90
2023-05-14T17:06:35.015Z,2.70
2023-05-14T17:09:17.789Z,2.50
2023-05-14T17:12:13.621Z,2.50
2023-05-14T17:15:07.734Z,3.30
2023-05-14T17:18:00.653Z,2.80
2023-05-14T17:20:53.723Z,2.90
2023-05-14T17:23:46.281Z,2.50
2023-05-14T17:26:39.413Z,2.50
2023-05-14T17:29:32.392Z,2.20
2023-05-14T17:32:15.578Z,2.80
2023-05-14T17:35:09.745Z,3.00
2023-05-14T17:38:03.109Z,2.80
2023-05-14T17:40:55.965Z,2.80
2023-05-14T17:43:52.523Z,2.50
2023-05-14T17:46:38.490Z,3.00
2023-05-14T17:49:41.902Z,2.40
2023-05-14T17:52:34.584Z,2.80
2023-05-14T17:55:27.404Z,2.80
2023-05-14T17:58:19.236Z,3.10
2023-05-14T18:01:12.444Z,3.00
2023-05-14T18:04:06.750Z,3.00
2023-05-14T18:07:01.337Z,3.10
2023-05-14T18:09:46.664Z,2.70
2023-05-14T18:12:19.430Z,2.70
2023-05-14T18:14:55.408Z,3.20
2023-05-14T18:17:38.093Z,3.20
2023-05-14T18:20:13.688Z,2.90
2023-05-14T18:22:59.655Z,3.40
2023-05-14T18:25:32.398Z,3.40
2023-05-14T18:28:05.380Z,3.10
2023-05-14T18:30:38.605Z,3.50
2023-05-14T18:33:13.786Z,3.70
2023-05-14T18:35:49.134Z,3.30
2023-05-14T18:38:21.996Z,3.80
2023-05-14T18:40:55.194Z,3.50
2023-05-14T18:43:28.605Z,3.40
2023-05-14T18:46:02.148Z,3.60
2023-05-14T18:48:34.939Z,3.80
2023-05-14T18:51:07.837Z,3.40
2023-05-14T18:53:41.326Z,3.80
2023-05-14T18:56:14.177Z,3.60
2023-05-14T18:58:46.581Z,3.70
2023-05-14T19:01:19.189Z,3.50
2023-05-14T19:03:54.983Z,3.30
2023-05-14T19:06:31.237Z,3.60
2023-05-14T19:09:07.040Z,3.60
2023-05-14T19:11:42.028Z,3.50
2023-05-14T19:14:14.858Z,3.40
2023-05-14T19:16:48.011Z,4.70
2023-05-14T19:19:21.523Z,3.90
2023-05-14T19:21:54.030Z,3.80
2023-05-14T19:24:29.590Z,3.70
2023-05-14T19:27:02.292Z,3.70
2023-05-14T19:29:34.786Z,4.40
2023-05-14T19:32:08.653Z,3.70
2023-05-14T19:34:41.132Z,3.70
2023-05-14T19:37:15.024Z,3.80
2023-05-14T19:39:47.793Z,4.00
2023-05-14T19:42:24.817Z,3.70
2023-05-14T19:45:01.078Z,3.90
2023-05-14T19:47:33.625Z,4.10
2023-05-14T19:50:08.650Z,3.70
2023-05-14T19:52:43.915Z,4.20
2023-05-14T19:55:18.367Z,4.10
2023-05-14T19:57:51.315Z,4.40
2023-05-14T20:00:33.796Z,4.00
2023-05-14T20:03:06.670Z,4.60
2023-05-14T20:05:39.632Z,3.80
2023-05-14T20:08:12.194Z,4.00
2023-05-14T20:10:49.788Z,3.90
2023-05-14T20:13:24.490Z,4.40
2023-05-14T20:15:58.415Z,4.60
2023-05-14T20:18:54.100Z,3.90
2023-05-14T20:21:46.987Z,4.60
2023-05-14T20:24:41.303Z,4.60
2023-05-14T20:27:24.425Z,4.50
2023-05-14T20:30:18.119Z,4.60
2023-05-14T20:33:04.136Z,5.20
2023-05-14T20:35:47.512Z,4.40
2023-05-14T20:38:25.808Z,4.10
2023-05-14T20:41:09.622Z,4.10
2023-05-14T20:44:02.572Z,3.40
2023-05-14T20:46:46.758Z,4.00
2023-05-14T20:49:42.305Z,3.70
2023-05-14T20:52:23.006Z,4.40
2023-05-14T20:55:15.665Z,3.70
2023-05-14T20:58:02.943Z,4.10
2023-05-14T21:00:39.301Z,3.90
2023-05-14T21:03:32.322Z,4.00
2023-05-14T21:06:25.898Z,4.20
2023-05-14T21:09:12.396Z,4.50
2023-05-14T21:11:59.456Z,4.20
2023-05-14T21:14:37.574Z,4.60
2023-05-14T21:17:30.103Z,4.60
2023-05-14T21:20:24.434Z,4.60
2023-05-14T21:23:16.966Z,5.00
2023-05-14T21:25:55.160Z,4.40
2023-05-14T21:28:27.922Z,5.00
2023-05-14T21:31:12.905Z,5.10
2023-05-14T21:34:05.432Z,4.40
2023-05-14T21:36:56.708Z,4.60
2023-05-14T21:39:34.847Z,4.90
2023-05-14T21:42:16.354Z,4.50
2023-05-14T21:45:01.838Z,4.70
2023-05-14T21:47:47.826Z,4.80
2023-05-14T21:50:33.119Z,5.00
2023-05-14T21:53:25.922Z,4.80
2023-05-14T21:56:18.651Z,5.30
2023-05-14T21:59:03.710Z,5.40
2023-05-14T22:02:07.057Z,4.90
2023-05-14T22:04:53.818Z,5.30
2023-05-14T22:07:46.607Z,5.10
2023-05-14T22:10:28.084Z,6.00
2023-05-14T22:13:14.199Z,6.30
2023-05-14T22:16:12.589Z,5.50
2023-05-14T22:18:48.575Z,5.90
2023-05-14T22:21:32.749Z,6.10
2023-05-14T22:24:20.353Z,6.60
2023-05-14T22:26:55.452Z,5.70
2023-05-14T22:29:48.078Z,6.20
2023-05-14T22:32:40.804Z,6.20
2023-05-14T22:35:33.732Z,6.20
2023-05-14T22:38:20.818Z,5.70
2023-05-14T22:41:05.208Z,6.60
2023-05-14T22:43:37.761Z,6.50
2023-05-14T22:46:15.807Z,6.60
2023-05-14T22:49:08.897Z,6.50
2023-05-14T22:51:55.258Z,6.70
2023-05-14T22:54:43.179Z,7.10
2023-05-14T22:57:37.090Z,7.40
2023-05-14T23:00:24.043Z,7.10
2023-05-14T23:03:17.026Z,7.20
2023-05-14T23:06:10.079Z,7.20
2023-05-14T23:08:43.240Z,7.50
2023-05-14T23:11:34.782Z,7.50
2023-05-14T23:14:19.027Z,7.00
2023-05-14T23:16:56.732Z,7.60
2023-05-14T23:19:49.720Z,7.30
2023-05-14T23:22:31.328Z,8.40
2023-05-14T23:25:14.976Z,8.10
2023-05-14T23:27:48.192Z,6.90
2023-05-14T23:30:41.269Z,8.00
2023-05-14T23:33:32.729Z,7.60
2023-05-14T23:36:13.342Z,7.70
2023-05-14T23:38:56.878Z,7.70
2023-05-14T23:41:49.593Z,7.80
2023-05-14T23:44:33.215Z,8.00
2023-05-14T23:47:25.787Z,7.40
2023-05-14T23:50:19.253Z,7.80
2023-05-14T23:53:01.435Z,7.80
2023-05-14T23:55:44.214Z,7.90
2023-05-14T23:58:31.947Z,7.80
